Aviation Digital Data Service (ADDS)

Output produced by METARs form (0952 UTC 30 August 2015)
found at http://aviationweather.gov/adds/metars/
 
KECG 300526Z 3006/3106 VRB03KT P6SM BKN250 
     FM301200 33004KT P6SM BKN250 
     FM301500 06006KT P6SM SCT150 BKN250 
     FM301800 12007KT P6SM SCT150 BKN250 
     FM302300 12005KT P6SM BKN120